Time;durP1;ratioP1;P1;durP2;ratioP2;P2;SDS_P1;SDS_P2;PMS_P1;PMS_P2;Temp;Humidity;BMP_temperature;BMP_pressure;BME280_temperature;BME280_humidity;BME280_pressure;Samples;Min_cycle;Max_cycle;Signal;HPM_P1;HPM_P2
2023/10/07 00:01:22;;;;;;;;;;;;;;;-147.89;100.00;60788.38;4232627;28;20431;-62
2023/10/07 00:03:24;;;;;;;;;;;;;;;-147.89;100.00;60788.38;4232310;28;19924;-62
2023/10/07 00:05:31;;;;;;;;;;;;;;;-147.89;100.00;60788.38;4232610;28;19924;-63
2023/10/07 00:07:33;;;;;;;;;;;;;;;-147.89;100.00;60788.38;4232410;28;20274;-62
2023/10/07 00:09:35;;;;;;;;;;;;;;;-147.89;100.00;60788.38;4213809;28;19927;-63
2023/10/07 00:11:36;;;;;;;;;;;;;;;-147.89;100.00;60788.38;4232348;28;19974;-63
2023/10/07 00:13:41;;;;;;;;;;;;;;;-147.89;100.00;60788.38;4232390;28;20007;-63
2023/10/07 00:15:43;;;;;;;;;;;;;;;-147.89;100.00;60788.38;4232452;28;19924;-62
2023/10/07 00:17:47;;;;;;;;;;;;;;;-147.89;100.00;60788.38;4231914;28;19924;-63
2023/10/07 00:19:48;;;;;;;;;;;;;;;-147.89;100.00;60788.38;4232503;28;19924;-62
2023/10/07 00:21:59;;;;;;;;;;;;;;;-147.89;100.00;60788.38;4232191;28;19927;-63
2023/10/07 00:24:05;;;;;;;;;;;;;;;-147.89;100.00;60788.38;4198327;28;19978;-63
2023/10/07 00:26:09;;;;;;;;;;;;;;;-147.89;100.00;60788.38;4198594;28;19931;-62
2023/10/07 00:28:59;;;;;;;;;;;;;;;-147.89;100.00;60788.38;4198230;28;19936;-63
2023/10/07 00:30:35;;;;;;;;;;;;;;;-147.89;100.00;60788.38;4195362;28;20348;-62
2023/10/07 00:32:38;;;;;;;;;;;;;;;-147.89;100.00;60788.38;4198578;28;19958;-63
2023/10/07 00:34:44;;;;;;;;;;;;;;;-147.89;100.00;60788.38;4194699;28;20445;-63
2023/10/07 00:36:47;;;;;;;;;;;;;;;-147.89;100.00;60788.38;4198501;28;19931;-63
2023/10/07 00:38:49;;;;;;;;;;;;;;;-147.89;100.00;60788.38;4197957;28;19932;-63
2023/10/07 00:40:55;;;;;;;;;;;;;;;-147.89;100.00;60788.38;4198353;28;20007;-62
2023/10/07 00:42:57;;;;;;;;;;;;;;;-147.89;100.00;60788.38;4198175;28;19974;-61
2023/10/07 00:45:02;;;;;;;;;;;;;;;-147.89;100.00;60788.38;4198118;28;19932;-61
2023/10/07 00:49:10;;;;;;;;;;;;;;;-147.89;100.00;60788.38;4197970;28;19931;-60
2023/10/07 00:51:12;;;;;;;;;;;;;;;-147.89;100.00;60788.38;4196846;28;19925;-61
2023/10/07 00:53:15;;;;;;;;;;;;;;;-147.89;100.00;60788.38;4196365;28;20115;-61
2023/10/07 00:55:18;;;;;;;;;;;;;;;-147.89;100.00;60788.38;4198008;28;19924;-62
2023/10/07 00:57:24;;;;;;;;;;;;;;;-147.89;100.00;60788.38;4198076;28;19924;-61
2023/10/07 00:59:26;;;;;;;;;;;;;;;-147.89;100.00;60788.38;4197857;28;19924;-61
2023/10/07 01:01:28;;;;;;;;;;;;;;;-147.89;100.00;60788.38;4198026;28;19932;-62
2023/10/07 01:03:47;;;;;;;;;;;;;;;-147.89;100.00;60788.38;4197819;28;19970;-62
2023/10/07 01:07:58;;;;;;;;;;;;;;;-147.89;100.00;60788.38;4197616;28;20313;-61
2023/10/07 01:12:10;;;;;;;;;;;;;;;-147.89;100.00;60788.38;4197711;28;20354;-62
2023/10/07 01:14:12;;;;;;;;;;;;;;;-147.89;100.00;60788.38;4197554;28;19929;-61
2023/10/07 01:16:14;;;;;;;;;;;;;;;-147.89;100.00;60788.38;4197785;28;19924;-62
2023/10/07 01:18:19;;;;;;;;;;;;;;;-147.89;100.00;60788.38;4197611;28;20067;-62
2023/10/07 01:23:03;;;;;;;;;;;;;;;-147.89;100.00;60788.38;4162019;28;19968;-62
2023/10/07 01:25:09;;;;;;;;;;;;;;;-147.89;100.00;60788.38;4162603;28;20361;-62
2023/10/07 01:29:28;;;;;;;;;;;;;;;-147.89;100.00;60788.38;4162308;28;19933;-62
2023/10/07 01:31:30;;;;;;;;;;;;;;;-147.89;100.00;60788.38;4150779;28;20351;-61
2023/10/07 01:33:46;;;;;;;;;;;;;;;-147.89;100.00;60788.38;4162583;28;19929;-61
2023/10/07 01:38:31;;;;;;;;;;;;;;;-147.89;100.00;60788.38;4113674;28;19954;-60
2023/10/07 01:42:53;;;;;;;;;;;;;;;-147.89;100.00;60788.38;4113621;28;19933;-61
2023/10/07 01:44:57;;;;;;;;;;;;;;;-147.89;100.00;60788.38;4113504;28;19926;-61
2023/10/07 01:46:58;;;;;;;;;;;;;;;-147.89;100.00;60788.38;4113665;28;20028;-61
2023/10/07 01:49:05;;;;;;;;;;;;;;;-147.89;100.00;60788.38;4113718;28;20338;-62
2023/10/07 01:51:11;;;;;;;;;;;;;;;-147.89;100.00;60788.38;4113125;28;19976;-60
2023/10/07 01:53:13;;;;;;;;;;;;;;;-147.89;100.00;60788.38;4113391;28;19966;-64
2023/10/07 01:55:15;;;;;;;;;;;;;;;-147.89;100.00;60788.38;4113493;28;19973;-62
2023/10/07 01:57:17;;;;;;;;;;;;;;;-147.89;100.00;60788.38;4112358;28;20380;-61
2023/10/07 01:59:18;;;;;;;;;;;;;;;-147.89;100.00;60788.38;4137299;28;19964;-61
2023/10/07 02:01:22;;;;;;;;;;;;;;;-147.89;100.00;60788.38;4145585;28;19925;-61
2023/10/07 02:03:23;;;;;;;;;;;;;;;-147.89;100.00;60788.38;4145723;28;20315;-60
2023/10/07 02:05:27;;;;;;;;;;;;;;;-147.89;100.00;60788.38;4145517;28;19925;-62
2023/10/07 02:07:29;;;;;;;;;;;;;;;-147.89;100.00;60788.38;4145011;28;19956;-62
2023/10/07 02:09:40;;;;;;;;;;;;;;;-147.89;100.00;60788.38;4170763;28;20427;-61
2023/10/07 02:11:42;;;;;;;;;;;;;;;-147.89;100.00;60788.38;4196798;28;19974;-61
2023/10/07 02:13:45;;;;;;;;;;;;;;;-147.89;100.00;60788.38;4196984;28;19924;-60
2023/10/07 02:15:47;;;;;;;;;;;;;;;-147.89;100.00;60788.38;4197230;28;19924;-61
2023/10/07 02:17:54;;;;;;;;;;;;;;;-147.89;100.00;60788.38;4196587;28;20016;-61
2023/10/07 02:20:09;;;;;;;;;;;;;;;-147.89;100.00;60788.38;4180092;28;20345;-61
2023/10/07 02:22:28;;;;;;;;;;;;;;;-147.89;100.00;60788.38;4192993;28;19925;-61
2023/10/07 02:24:30;;;;;;;;;;;;;;;-147.89;100.00;60788.38;4230357;28;19928;-62
2023/10/07 02:26:32;;;;;;;;;;;;;;;-147.89;100.00;60788.38;4230384;28;20438;-61
2023/10/07 02:28:34;;;;;;;;;;;;;;;-147.89;100.00;60788.38;4230299;28;20346;-61
2023/10/07 02:30:50;;;;;;;;;;;;;;;-147.89;100.00;60788.38;4230318;28;19923;-61
2023/10/07 02:32:52;;;;;;;;;;;;;;;-147.89;100.00;60788.38;4230284;28;19927;-61
2023/10/07 02:34:55;;;;;;;;;;;;;;;-147.89;100.00;60788.38;4230095;28;20323;-62
2023/10/07 02:37:12;;;;;;;;;;;;;;;-147.89;100.00;60788.38;4230369;28;19949;-62
2023/10/07 02:39:31;;;;;;;;;;;;;;;-147.89;100.00;60788.38;4230453;28;20269;-61
2023/10/07 02:41:33;;;;;;;;;;;;;;;-147.89;100.00;60788.38;4230319;28;19934;-62
2023/10/07 02:43:43;;;;;;;;;;;;;;;-147.89;100.00;60788.38;4229831;28;19966;-61
2023/10/07 02:45:50;;;;;;;;;;;;;;;-147.89;100.00;60788.38;4213490;28;19928;-61
2023/10/07 02:47:53;;;;;;;;;;;;;;;-147.89;100.00;60788.38;4221023;28;19924;-61
2023/10/07 02:49:59;;;;;;;;;;;;;;;-147.89;100.00;60788.38;4229983;28;20389;-62
2023/10/07 02:52:02;;;;;;;;;;;;;;;-147.89;100.00;60788.38;4230171;28;19977;-61
2023/10/07 02:54:17;;;;;;;;;;;;;;;-147.89;100.00;60788.38;4229879;28;20006;-61
2023/10/07 02:56:24;;;;;;;;;;;;;;;-147.89;100.00;60788.38;4230239;28;20289;-61
2023/10/07 02:59:25;;;;;;;;;;;;;;;-147.89;100.00;60788.38;4229817;28;19924;-62
2023/10/07 03:00:51;;;;;;;;;;;;;;;-147.89;100.00;60788.38;4219567;28;19931;-63
2023/10/07 03:03:09;;;;;;;;;;;;;;;-147.89;100.00;60788.38;4229427;28;19977;-61
2023/10/07 03:07:16;;;;;;;;;;;;;;;-147.89;100.00;60788.38;4230056;28;19954;-62
2023/10/07 03:09:18;;;;;;;;;;;;;;;-147.89;100.00;60788.38;4230047;28;19928;-61
2023/10/07 03:11:23;;;;;;;;;;;;;;;-147.89;100.00;60788.38;4230188;28;19924;-63
2023/10/07 03:13:25;;;;;;;;;;;;;;;-147.89;100.00;60788.38;4229890;28;20325;-62
2023/10/07 03:15:39;;;;;;;;;;;;;;;-147.89;100.00;60788.38;4230099;28;19924;-62
2023/10/07 03:17:45;;;;;;;;;;;;;;;-147.89;100.00;60788.38;4229997;28;20374;-62
2023/10/07 03:19:56;;;;;;;;;;;;;;;-147.89;100.00;60788.38;4231222;28;19934;-63
2023/10/07 03:22:09;;;;;;;;;;;;;;;-147.89;100.00;60788.38;4216419;28;19967;-62
2023/10/07 03:24:12;;;;;;;;;;;;;;;-147.89;100.00;60788.38;4224941;28;19923;-62
2023/10/07 03:26:18;;;;;;;;;;;;;;;-147.89;100.00;60788.38;4233513;28;20274;-62
2023/10/07 03:28:20;;;;;;;;;;;;;;;-147.89;100.00;60788.38;4233096;28;19928;-61
2023/10/07 03:30:27;;;;;;;;;;;;;;;-147.89;100.00;60788.38;4232274;28;20289;-62
2023/10/07 03:32:54;;;;;;;;;;;;;;;-147.89;100.00;60788.38;4232818;28;20233;-62
2023/10/07 03:34:55;;;;;;;;;;;;;;;-147.89;100.00;60788.38;4232670;28;19963;-62
2023/10/07 03:37:14;;;;;;;;;;;;;;;-147.89;100.00;60788.38;4232934;28;19924;-62
2023/10/07 03:41:21;;;;;;;;;;;;;;;-147.89;100.00;60788.38;4232977;28;19930;-62
2023/10/07 03:43:26;;;;;;;;;;;;;;;-147.89;100.00;60788.38;4232881;28;19928;-62
2023/10/07 03:45:32;;;;;;;;;;;;;;;-147.89;100.00;60788.38;4232623;28;20018;-62
2023/10/07 03:47:34;;;;;;;;;;;;;;;-147.89;100.00;60788.38;4232460;28;20310;-63
2023/10/07 03:49:40;;;;;;;;;;;;;;;-147.89;100.00;60788.38;4232670;28;19933;-63
2023/10/07 03:51:45;;;;;;;;;;;;;;;-147.89;100.00;60788.38;4221743;28;19928;-63
2023/10/07 03:53:46;;;;;;;;;;;;;;;-147.89;100.00;60788.38;4232655;28;19924;-62
2023/10/07 03:55:48;;;;;;;;;;;;;;;-147.89;100.00;60788.38;4232469;28;20431;-62
2023/10/07 03:57:49;;;;;;;;;;;;;;;-147.89;100.00;60788.38;4232426;28;19997;-62
2023/10/07 03:59:52;;;;;;;;;;;;;;;-147.89;100.00;60788.38;4214299;28;20485;-62
2023/10/07 04:01:54;;;;;;;;;;;;;;;-147.89;100.00;60788.38;4232381;28;19930;-62
2023/10/07 04:03:59;;;;;;;;;;;;;;;-147.89;100.00;60788.38;4232754;28;20372;-62
2023/10/07 04:06:01;;;;;;;;;;;;;;;-147.89;100.00;60788.38;4232652;28;20392;-62
2023/10/07 04:08:08;;;;;;;;;;;;;;;-147.89;100.00;60788.38;4232508;28;19970;-64
2023/10/07 04:10:20;;;;;;;;;;;;;;;-147.89;100.00;60788.38;4232250;28;20335;-62
2023/10/07 04:12:22;;;;;;;;;;;;;;;-147.89;100.00;60788.38;4221302;28;19963;-62
2023/10/07 04:14:35;;;;;;;;;;;;;;;-147.89;100.00;60788.38;4232462;28;19955;-62
2023/10/07 04:16:36;;;;;;;;;;;;;;;-147.89;100.00;60788.38;4231910;28;19966;-62
2023/10/07 04:18:40;;;;;;;;;;;;;;;-147.89;100.00;60788.38;4232214;28;19928;-62
2023/10/07 04:20:56;;;;;;;;;;;;;;;-147.89;100.00;60788.38;4231947;28;20412;-62
2023/10/07 04:23:00;;;;;;;;;;;;;;;-147.89;100.00;60788.38;4232088;28;20420;-62
2023/10/07 04:25:07;;;;;;;;;;;;;;;-147.89;100.00;60788.38;4232308;28;19973;-62
2023/10/07 04:27:10;;;;;;;;;;;;;;;-147.89;100.00;60788.38;4231945;28;19931;-61
2023/10/07 04:29:15;;;;;;;;;;;;;;;-147.89;100.00;60788.38;4232184;28;19924;-62
2023/10/07 04:31:17;;;;;;;;;;;;;;;-147.89;100.00;60788.38;4231393;28;20286;-62
2023/10/07 04:33:25;;;;;;;;;;;;;;;-147.89;100.00;60788.38;4232168;28;20404;-62
2023/10/07 04:35:30;;;;;;;;;;;;;;;-147.89;100.00;60788.38;4232131;28;19924;-61
2023/10/07 04:37:47;;;;;;;;;;;;;;;-147.89;100.00;60788.38;4231755;28;19977;-62
2023/10/07 04:41:57;;;;;;;;;;;;;;;-147.89;100.00;60788.38;4224357;28;20026;-61
2023/10/07 04:43:59;;;;;;;;;;;;;;;-147.89;100.00;60788.38;4231794;28;19923;-62
2023/10/07 04:46:22;;;;;;;;;;;;;;;-147.89;100.00;60788.38;4231894;28;19924;-62
2023/10/07 04:48:24;;;;;;;;;;;;;;;-147.89;100.00;60788.38;4230658;28;19924;-61
2023/10/07 04:50:37;;;;;;;;;;;;;;;-147.89;100.00;60788.38;4231841;28;19927;-61
2023/10/07 04:52:43;;;;;;;;;;;;;;;-147.89;100.00;60788.38;4231477;28;19985;-62
2023/10/07 04:54:46;;;;;;;;;;;;;;;-147.89;100.00;60788.38;4231041;28;19924;-62
2023/10/07 04:57:00;;;;;;;;;;;;;;;-147.89;100.00;60788.38;4231595;28;19923;-62
2023/10/07 04:59:09;;;;;;;;;;;;;;;-147.89;100.00;60788.38;4221902;28;19977;-61
2023/10/07 05:03:45;;;;;;;;;;;;;;;-147.89;100.00;60788.38;4162916;28;20020;-62
2023/10/07 05:05:47;;;;;;;;;;;;;;;-147.89;100.00;60788.38;4162907;28;20008;-62
2023/10/07 05:07:50;;;;;;;;;;;;;;;-147.89;100.00;60788.38;4152145;28;20012;-62
2023/10/07 05:09:52;;;;;;;;;;;;;;;-147.89;100.00;60788.38;4162780;28;20073;-62
2023/10/07 05:11:54;;;;;;;;;;;;;;;-147.89;100.00;60788.38;4163051;28;20399;-62
2023/10/07 05:13:55;;;;;;;;;;;;;;;-147.89;100.00;60788.38;4162231;28;19960;-62
2023/10/07 05:15:57;;;;;;;;;;;;;;;-147.89;100.00;60788.38;4163033;28;19952;-62
2023/10/07 05:18:01;;;;;;;;;;;;;;;-147.89;100.00;60788.38;4162493;28;19925;-62
2023/10/07 05:20:22;;;;;;;;;;;;;;;-147.89;100.00;60788.38;4162578;28;19981;-62
2023/10/07 05:22:25;;;;;;;;;;;;;;;-147.89;100.00;60788.38;4162382;28;19970;-62
2023/10/07 05:24:30;;;;;;;;;;;;;;;-147.89;100.00;60788.38;4162711;28;19933;-63
2023/10/07 05:26:33;;;;;;;;;;;;;;;-147.89;100.00;60788.38;4162673;28;20020;-62
2023/10/07 05:28:35;;;;;;;;;;;;;;;-147.89;100.00;60788.38;4162115;28;19980;-62
2023/10/07 05:30:38;;;;;;;;;;;;;;;-147.89;100.00;60788.38;4162413;28;19925;-62
2023/10/07 05:32:39;;;;;;;;;;;;;;;-147.89;100.00;60788.38;4162381;28;19956;-62
2023/10/07 05:34:41;;;;;;;;;;;;;;;-147.89;100.00;60788.38;4162509;28;19964;-63
2023/10/07 05:36:44;;;;;;;;;;;;;;;-147.89;100.00;60788.38;4162795;28;19964;-62
2023/10/07 05:38:45;;;;;;;;;;;;;;;-147.89;100.00;60788.38;4165282;28;19925;-62
2023/10/07 05:40:47;;;;;;;;;;;;;;;-147.89;100.00;60788.38;4231189;28;20018;-62
2023/10/07 05:42:49;;;;;;;;;;;;;;;-147.89;100.00;60788.38;4230332;28;19958;-62
2023/10/07 05:44:50;;;;;;;;;;;;;;;-147.89;100.00;60788.38;4229579;28;20312;-62
2023/10/07 05:46:52;;;;;;;;;;;;;;;-147.89;100.00;60788.38;4230985;28;19976;-62
2023/10/07 05:48:54;;;;;;;;;;;;;;;-147.89;100.00;60788.38;4230682;28;19930;-62
2023/10/07 05:50:57;;;;;;;;;;;;;;;-147.89;100.00;60788.38;4230938;28;20320;-62
2023/10/07 05:52:59;;;;;;;;;;;;;;;-147.89;100.00;60788.38;4230972;28;19947;-61
2023/10/07 05:55:02;;;;;;;;;;;;;;;-147.89;100.00;60788.38;4230429;28;20014;-63
2023/10/07 05:57:05;;;;;;;;;;;;;;;-147.89;100.00;60788.38;4212258;28;19937;-64
2023/10/07 05:59:07;;;;;;;;;;;;;;;-147.89;100.00;60788.38;4230683;28;20373;-62
2023/10/07 06:01:11;;;;;;;;;;;;;;;-147.89;100.00;60788.38;4212629;28;19950;-62
2023/10/07 06:03:13;;;;;;;;;;;;;;;-147.89;100.00;60788.38;4230648;28;19935;-62
2023/10/07 06:05:15;;;;;;;;;;;;;;;-147.89;100.00;60788.38;4230608;28;19927;-62
2023/10/07 06:07:20;;;;;;;;;;;;;;;-147.89;100.00;60788.38;4230762;28;20365;-62
2023/10/07 06:09:22;;;;;;;;;;;;;;;-147.89;100.00;60788.38;4230244;28;19923;-63
2023/10/07 06:11:27;;;;;;;;;;;;;;;-147.89;100.00;60788.38;4230106;28;20325;-63
2023/10/07 06:13:29;;;;;;;;;;;;;;;-147.89;100.00;60788.38;4230757;28;20377;-63
2023/10/07 06:15:31;;;;;;;;;;;;;;;-147.89;100.00;60788.38;4230392;28;19924;-62
2023/10/07 06:17:33;;;;;;;;;;;;;;;-147.89;100.00;60788.38;4230411;28;19928;-62
2023/10/07 06:19:40;;;;;;;;;;;;;;;-147.89;100.00;60788.38;4230052;28;19924;-63
2023/10/07 06:21:50;;;;;;;;;;;;;;;-147.89;100.00;60788.38;4230608;28;20364;-63
2023/10/07 06:23:53;;;;;;;;;;;;;;;-147.89;100.00;60788.38;4230234;28;19931;-62
2023/10/07 06:26:01;;;;;;;;;;;;;;;-147.89;100.00;60788.38;4229882;28;19928;-62
2023/10/07 06:28:05;;;;;;;;;;;;;;;-147.89;100.00;60788.38;4230453;28;19924;-63
2023/10/07 06:30:09;;;;;;;;;;;;;;;-147.89;100.00;60788.38;4230468;28;19924;-63
2023/10/07 06:32:23;;;;;;;;;;;;;;;-147.89;100.00;60788.38;4230316;28;19996;-62
2023/10/07 06:34:32;;;;;;;;;;;;;;;-147.89;100.00;60788.38;4230500;28;20304;-63
2023/10/07 06:36:34;;;;;;;;;;;;;;;-147.89;100.00;60788.38;4229132;28;19924;-62
2023/10/07 06:38:37;;;;;;;;;;;;;;;-147.89;100.00;60788.38;4230530;28;20018;-63
2023/10/07 06:40:40;;;;;;;;;;;;;;;-147.89;100.00;60788.38;4229577;28;19969;-62
2023/10/07 06:42:42;;;;;;;;;;;;;;;-147.89;100.00;60788.38;4230413;28;19959;-62
2023/10/07 06:44:43;;;;;;;;;;;;;;;-147.89;100.00;60788.38;4230400;28;19928;-62
2023/10/07 06:46:46;;;;;;;;;;;;;;;-147.89;100.00;60788.38;4230076;28;19935;-62
2023/10/07 06:48:48;;;;;;;;;;;;;;;-147.89;100.00;60788.38;4230299;28;20423;-62
2023/10/07 06:50:52;;;;;;;;;;;;;;;-147.89;100.00;60788.38;4229932;28;20380;-62
2023/10/07 06:52:57;;;;;;;;;;;;;;;-147.89;100.00;60788.38;4230473;28;19924;-61
2023/10/07 06:55:02;;;;;;;;;;;;;;;-147.89;100.00;60788.38;4233392;28;19928;-62
2023/10/07 06:57:12;;;;;;;;;;;;;;;-147.89;100.00;60788.38;4233404;28;19928;-61
2023/10/07 06:59:15;;;;;;;;;;;;;;;-147.89;100.00;60788.38;4216767;28;19924;-61
2023/10/07 07:01:22;;;;;;;;;;;;;;;-147.89;100.00;60788.38;4224581;28;20324;-62
2023/10/07 07:03:25;;;;;;;;;;;;;;;-147.89;100.00;60788.38;4233559;28;20343;-62
2023/10/07 07:05:28;;;;;;;;;;;;;;;-147.89;100.00;60788.38;4233544;28;19968;-62
2023/10/07 07:07:34;;;;;;;;;;;;;;;-147.89;100.00;60788.38;4233032;28;19946;-62
2023/10/07 07:09:41;;;;;;;;;;;;;;;-147.89;100.00;60788.38;4216067;28;19925;-62
2023/10/07 07:11:43;;;;;;;;;;;;;;;-147.89;100.00;60788.38;4225031;28;20309;-62
2023/10/07 07:13:44;;;;;;;;;;;;;;;-147.89;100.00;60788.38;4233360;28;20399;-62
2023/10/07 07:15:57;;;;;;;;;;;;;;;-147.89;100.00;60788.38;4233389;28;19928;-63
2023/10/07 07:18:14;;;;;;;;;;;;;;;-147.89;100.00;60788.38;4232424;28;20454;-62
2023/10/07 07:20:29;;;;;;;;;;;;;;;-147.89;100.00;60788.38;4233314;28;19932;-61
2023/10/07 07:22:30;;;;;;;;;;;;;;;-147.89;100.00;60788.38;4232819;28;19935;-61
2023/10/07 07:24:33;;;;;;;;;;;;;;;-147.89;100.00;60788.38;4233001;28;20378;-62
2023/10/07 07:26:34;;;;;;;;;;;;;;;-147.89;100.00;60788.38;4233107;28;19932;-62
2023/10/07 07:28:42;;;;;;;;;;;;;;;-147.89;100.00;60788.38;4233321;28;20423;-61
2023/10/07 07:30:45;;;;;;;;;;;;;;;-147.89;100.00;60788.38;4232960;28;20011;-62
2023/10/07 07:32:55;;;;;;;;;;;;;;;-147.89;100.00;60788.38;4232248;28;20458;-61
2023/10/07 07:35:02;;;;;;;;;;;;;;;-147.89;100.00;60788.38;4233098;28;19927;-62
2023/10/07 07:37:04;;;;;;;;;;;;;;;-147.89;100.00;60788.38;4232863;28;20282;-62
2023/10/07 07:39:09;;;;;;;;;;;;;;;-147.89;100.00;60788.38;4232671;28;20026;-63
2023/10/07 07:41:29;;;;;;;;;;;;;;;-147.89;100.00;60788.38;4233142;28;19931;-62
2023/10/07 07:43:31;;;;;;;;;;;;;;;-147.89;100.00;60788.38;4233166;28;20452;-63
2023/10/07 07:45:35;;;;;;;;;;;;;;;-147.89;100.00;60788.38;4232909;28;19923;-62
2023/10/07 07:47:38;;;;;;;;;;;;;;;-147.89;100.00;60788.38;4232867;28;19927;-62
2023/10/07 07:49:41;;;;;;;;;;;;;;;-147.89;100.00;60788.38;4232962;28;19927;-63
2023/10/07 07:51:43;;;;;;;;;;;;;;;-147.89;100.00;60788.38;4232891;28;19924;-61
2023/10/07 07:53:45;;;;;;;;;;;;;;;-147.89;100.00;60788.38;4232233;28;19927;-61
2023/10/07 07:55:47;;;;;;;;;;;;;;;-147.89;100.00;60788.38;4232667;28;19928;-61
2023/10/07 07:57:49;;;;;;;;;;;;;;;-147.89;100.00;60788.38;4232587;28;20020;-62
2023/10/07 07:59:51;;;;;;;;;;;;;;;-147.89;100.00;60788.38;4232479;28;19928;-62
2023/10/07 08:01:53;;;;;;;;;;;;;;;-147.89;100.00;60788.38;4233043;28;20231;-62
2023/10/07 08:03:59;;;;;;;;;;;;;;;-147.89;100.00;60788.38;4232300;28;19936;-62
2023/10/07 08:06:04;;;;;;;;;;;;;;;-147.89;100.00;60788.38;4231892;28;19931;-62
2023/10/07 08:08:18;;;;;;;;;;;;;;;-147.89;100.00;60788.38;4232143;28;20018;-62
2023/10/07 08:10:20;;;;;;;;;;;;;;;-147.89;100.00;60788.38;4221436;28;19924;-62
2023/10/07 08:12:34;;;;;;;;;;;;;;;-147.89;100.00;60788.38;4232688;28;20355;-62
2023/10/07 08:14:37;;;;;;;;;;;;;;;-147.89;100.00;60788.38;4232333;28;19959;-62
2023/10/07 08:16:50;;;;;;;;;;;;;;;-147.89;100.00;60788.38;4232430;28;20377;-62
2023/10/07 08:18:54;;;;;;;;;;;;;;;-147.89;100.00;60788.38;4232205;28;19943;-62
2023/10/07 08:20:56;;;;;;;;;;;;;;;-147.89;100.00;60788.38;4232365;28;19935;-62
2023/10/07 08:23:14;;;;;;;;;;;;;;;-147.89;100.00;60788.38;4231922;28;19923;-62
2023/10/07 08:26:08;;;;;;;;;;;;;;;-147.89;100.00;60788.38;4231523;28;19924;-62
2023/10/07 08:27:44;;;;;;;;;;;;;;;-147.89;100.00;60788.38;4221400;28;19924;-62
2023/10/07 08:29:45;;;;;;;;;;;;;;;-147.89;100.00;60788.38;4231989;28;20339;-63
2023/10/07 08:31:49;;;;;;;;;;;;;;;-147.89;100.00;60788.38;4232296;28;19966;-62
2023/10/07 08:34:04;;;;;;;;;;;;;;;-147.89;100.00;60788.38;4231843;28;20320;-62
2023/10/07 08:36:07;;;;;;;;;;;;;;;-147.89;100.00;60788.38;4231648;28;19931;-62
2023/10/07 08:38:37;;;;;;;;;;;;;;;-147.89;100.00;60788.38;4232094;28;20393;-62
2023/10/07 08:40:49;;;;;;;;;;;;;;;-147.89;100.00;60788.38;4231774;28;20354;-63
2023/10/07 08:42:52;;;;;;;;;;;;;;;-147.89;100.00;60788.38;4231814;28;19969;-62
2023/10/07 08:44:59;;;;;;;;;;;;;;;-147.89;100.00;60788.38;4231656;28;19924;-62
2023/10/07 08:47:04;;;;;;;;;;;;;;;-147.89;100.00;60788.38;4231953;28;20308;-62
2023/10/07 08:49:13;;;;;;;;;;;;;;;-147.89;100.00;60788.38;4231613;28;19977;-63
2023/10/07 08:51:21;;;;;;;;;;;;;;;-147.89;100.00;60788.38;4228452;28;20036;-62
2023/10/07 08:53:26;;;;;;;;;;;;;;;-147.89;100.00;60788.38;4232078;28;20398;-63
2023/10/07 08:55:30;;;;;;;;;;;;;;;-147.89;100.00;60788.38;4231739;28;19938;-62
2023/10/07 08:57:34;;;;;;;;;;;;;;;-147.89;100.00;60788.38;4231697;28;19924;-62
2023/10/07 08:59:37;;;;;;;;;;;;;;;-147.89;100.00;60788.38;4231514;28;19931;-63
2023/10/07 09:01:42;;;;;;;;;;;;;;;-147.89;100.00;60788.38;4231823;28;19924;-62
2023/10/07 09:03:47;;;;;;;;;;;;;;;-147.89;100.00;60788.38;4229032;28;19924;-63
2023/10/07 09:05:49;;;;;;;;;;;;;;;-147.89;100.00;60788.38;4229105;28;19924;-63
2023/10/07 09:07:50;;;;;;;;;;;;;;;-147.89;100.00;60788.38;4226781;28;19934;-62
2023/10/07 09:09:53;;;;;;;;;;;;;;;-147.89;100.00;60788.38;4231353;28;19924;-63
2023/10/07 09:11:57;;;;;;;;;;;;;;;-147.89;100.00;60788.38;4227453;28;19932;-69
2023/10/07 09:14:04;;;;;;;;;;;;;;;-147.89;100.00;60788.38;4228373;28;19966;-70
2023/10/07 09:16:10;;;;;;;;;;;;;;;-147.89;100.00;60788.38;4212979;28;19931;-67
2023/10/07 09:18:17;;;;;;;;;;;;;;;-147.89;100.00;60788.38;4229313;28;20270;-66
2023/10/07 09:20:29;;;;;;;;;;;;;;;-147.89;100.00;60788.38;4220747;28;20018;-65
2023/10/07 09:22:35;;;;;;;;;;;;;;;-147.89;100.00;60788.38;4230922;28;19924;-66
2023/10/07 09:24:43;;;;;;;;;;;;;;;-147.89;100.00;60788.38;4231336;28;19966;-68
2023/10/07 09:26:49;;;;;;;;;;;;;;;-147.89;100.00;60788.38;4230822;28;19928;-67
2023/10/07 09:29:07;;;;;;;;;;;;;;;-147.89;100.00;60788.38;4231223;28;19924;-68
2023/10/07 09:31:09;;;;;;;;;;;;;;;-147.89;100.00;60788.38;4230632;28;19956;-67
2023/10/07 09:33:17;;;;;;;;;;;;;;;-147.89;100.00;60788.38;4231068;28;20401;-66
2023/10/07 09:35:22;;;;;;;;;;;;;;;-147.89;100.00;60788.38;4230441;28;19928;-68
2023/10/07 09:37:32;;;;;;;;;;;;;;;-147.89;100.00;60788.38;4230853;28;19928;-66
2023/10/07 09:39:43;;;;;;;;;;;;;;;-147.89;100.00;60788.38;4214068;28;20351;-69
2023/10/07 09:42:00;;;;;;;;;;;;;;;-147.89;100.00;60788.38;4222451;28;19950;-67
2023/10/07 09:44:02;;;;;;;;;;;;;;;-147.89;100.00;60788.38;4230753;28;19924;-67
2023/10/07 09:46:07;;;;;;;;;;;;;;;-147.89;100.00;60788.38;4230809;28;19927;-66
2023/10/07 09:48:09;;;;;;;;;;;;;;;-147.89;100.00;60788.38;4227610;28;19932;-68
2023/10/07 09:50:25;;;;;;;;;;;;;;;-147.89;100.00;60788.38;4230689;28;19977;-67
2023/10/07 09:52:32;;;;;;;;;;;;;;;-147.89;100.00;60788.38;4228354;28;19963;-66
2023/10/07 09:54:47;;;;;;;;;;;;;;;-147.89;100.00;60788.38;4215312;27;19959;-67
2023/10/07 09:57:07;;;;;;;;;;;;;;;-147.89;100.00;60788.38;4231667;27;20005;-67
2023/10/07 09:59:25;;;;;;;;;;;;;;;-147.89;100.00;60788.38;4223357;27;19930;-68
2023/10/07 10:01:38;;;;;;;;;;;;;;;-147.89;100.00;60788.38;4230614;27;19980;-66
2023/10/07 10:03:42;;;;;;;;;;;;;;;-147.89;100.00;60788.38;4231177;27;20341;-66
2023/10/07 10:05:59;;;;;;;;;;;;;;;-147.89;100.00;60788.38;4240399;27;19931;-68
2023/10/07 10:08:19;;;;;;;;;;;;;;;-147.89;100.00;60788.38;4229609;27;19924;-62
2023/10/07 10:10:31;;;;;;;;;;;;;;;-147.89;100.00;60788.38;4225586;28;19931;-63
2023/10/07 10:17:22;;;;;;;;;;;;;;;-147.89;100.00;60788.38;4174262;28;20474;-68
2023/10/07 10:19:25;;;;;;;;;;;;;;;-147.89;100.00;60788.38;4168108;28;19924;-68
2023/10/07 10:21:30;;;;;;;;;;;;;;;-147.89;100.00;60788.38;4171333;28;19925;-67
2023/10/07 10:23:35;;;;;;;;;;;;;;;-147.89;100.00;60788.38;4169277;28;20015;-67
2023/10/07 10:25:36;;;;;;;;;;;;;;;-147.89;100.00;60788.38;4172778;28;19932;-68
2023/10/07 10:27:44;;;;;;;;;;;;;;;-147.89;100.00;60788.38;4176971;28;20018;-66
2023/10/07 10:29:52;;;;;;;;;;;;;;;-147.89;100.00;60788.38;4166656;28;20036;-65
2023/10/07 10:31:58;;;;;;;;;;;;;;;-147.89;100.00;60788.38;4176561;28;19931;-65
2023/10/07 10:34:05;;;;;;;;;;;;;;;-147.89;100.00;60788.38;4163669;28;20032;-66
2023/10/07 10:36:07;;;;;;;;;;;;;;;-147.89;100.00;60788.38;4161319;28;19968;-64
2023/10/07 10:38:13;;;;;;;;;;;;;;;-147.89;100.00;60788.38;4164758;28;19924;-63
2023/10/07 10:40:17;;;;;;;;;;;;;;;-147.89;100.00;60788.38;4166958;28;19947;-67
2023/10/07 10:42:19;;;;;;;;;;;;;;;-147.89;100.00;60788.38;4161367;28;20306;-64
2023/10/07 10:44:21;;;;;;;;;;;;;;;-147.89;100.00;60788.38;4169341;28;19924;-64
2023/10/07 10:46:27;;;;;;;;;;;;;;;-147.89;100.00;60788.38;4177794;28;20333;-66
2023/10/07 10:48:31;;;;;;;;;;;;;;;-147.89;100.00;60788.38;4171905;28;19998;-65
2023/10/07 10:50:33;;;;;;;;;;;;;;;-147.89;100.00;60788.38;4166945;28;19999;-61
2023/10/07 10:52:34;;;;;;;;;;;;;;;-147.89;100.00;60788.38;4176843;28;19925;-64
2023/10/07 10:54:36;;;;;;;;;;;;;;;-147.89;100.00;60788.38;4197364;28;20453;-65
2023/10/07 10:56:47;;;;;;;;;;;;;;;-147.89;100.00;60788.38;4228457;28;20360;-66
2023/10/07 10:58:53;;;;;;;;;;;;;;;-147.89;100.00;60788.38;4228808;28;20023;-63
2023/10/07 11:00:55;;;;;;;;;;;;;;;-147.89;100.00;60788.38;4227691;28;20359;-67